createdAt,value
2018-10-02T00:01:45.973Z,97459.44
2018-10-02T00:04:15.625Z,97447.51
2018-10-02T00:06:45.340Z,97465.21
2018-10-02T00:09:16.125Z,97460.66
2018-10-02T00:11:50.770Z,97459.05
2018-10-02T00:14:25.357Z,97464.73
2018-10-02T00:16:55.913Z,97467.44
2018-10-02T00:19:39.884Z,97471.34
2018-10-02T00:22:09.665Z,97466.12
2018-10-02T00:24:39.599Z,97468.34
2018-10-02T00:27:10.316Z,97472.73
2018-10-02T00:29:41.917Z,97484.16
2018-10-02T00:32:12.032Z,97493.36
2018-10-02T00:34:43.124Z,97494.30
2018-10-02T00:37:13.598Z,97501.37
2018-10-02T00:39:44.721Z,97499.30
2018-10-02T00:42:15.078Z,97499.77
2018-10-02T00:44:45.798Z,97488.80
2018-10-02T00:47:15.978Z,97491.79
2018-10-02T00:49:47.284Z,97499.22
2018-10-02T00:52:23.617Z,97498.77
2018-10-02T00:54:53.957Z,97495.39
2018-10-02T00:57:26.978Z,97498.95
2018-10-02T00:59:58.477Z,97493.91
2018-10-02T01:02:29.617Z,97487.02
2018-10-02T01:05:00.857Z,97496.77
2018-10-02T01:07:31.716Z,97494.56
2018-10-02T01:10:02.737Z,97497.99
2018-10-02T01:12:33.798Z,97491.56
2018-10-02T01:15:07.437Z,97490.35
2018-10-02T01:20:50.741Z,97479.72
2018-10-02T01:29:02.345Z,97477.67
2018-10-02T01:31:51.079Z,97477.77
2018-10-02T01:34:21.517Z,97481.75
2018-10-02T01:36:51.716Z,97489.12
2018-10-02T01:39:21.543Z,97496.46
2018-10-02T01:41:51.605Z,97490.04
2018-10-02T01:44:21.657Z,97491.98
2018-10-02T01:46:51.896Z,97491.33
2018-10-02T01:49:21.800Z,97485.73
2018-10-02T01:51:51.917Z,97487.03
2018-10-02T01:54:21.977Z,97494.63
2018-10-02T01:56:52.117Z,97499.95
2018-10-02T01:59:22.158Z,97493.80
2018-10-02T02:01:52.325Z,97498.73
2018-10-02T02:04:22.258Z,97504.68
2018-10-02T02:06:52.877Z,97508.20
2018-10-02T02:09:23.357Z,97506.16
2018-10-02T02:11:53.517Z,97512.27
2018-10-02T02:14:23.547Z,97508.37
2018-10-02T02:16:54.104Z,97513.41
2018-10-02T02:19:24.316Z,97514.88
2018-10-02T02:21:54.217Z,97516.73
2018-10-02T02:24:24.165Z,97524.77
2018-10-02T02:26:53.999Z,97520.86
2018-10-02T02:29:23.857Z,97522.16
2018-10-02T02:31:53.787Z,97517.87
2018-10-02T02:34:23.757Z,97514.60
2018-10-02T02:36:53.820Z,97520.33
2018-10-02T02:39:23.757Z,97520.53
2018-10-02T02:41:54.457Z,97519.31
2018-10-02T02:44:24.957Z,97521.14
2018-10-02T02:46:55.137Z,97530.72
2018-10-02T02:49:30.877Z,97533.88
2018-10-02T02:52:03.417Z,97543.16
2018-10-02T02:54:33.557Z,97550.48
2018-10-02T02:59:47.597Z,97549.58
2018-10-02T03:02:17.777Z,97557.62
2018-10-02T03:04:47.621Z,97558.54
2018-10-02T03:07:17.358Z,97564.96
2018-10-02T03:09:47.417Z,97556.33
2018-10-02T03:12:17.538Z,97558.62
2018-10-02T03:14:47.945Z,97559.41
2018-10-02T03:17:18.237Z,97562.25
2018-10-02T03:19:48.317Z,97555.44
2018-10-02T03:22:18.878Z,97558.59
2018-10-02T03:24:48.958Z,97560.80
2018-10-02T03:27:19.117Z,97564.81
2018-10-02T03:29:49.757Z,97572.23
2018-10-02T03:32:20.903Z,97575.74
2018-10-02T03:34:51.070Z,97581.89
2018-10-02T03:37:21.118Z,97580.27
2018-10-02T03:39:53.309Z,97588.24
2018-10-02T03:42:24.567Z,97584.42
2018-10-02T03:44:54.827Z,97591.78
2018-10-02T03:47:25.594Z,97594.47
2018-10-02T03:49:55.712Z,97597.22
2018-10-02T03:52:26.212Z,97597.38
2018-10-02T03:54:56.496Z,97602.66
2018-10-02T03:57:26.576Z,97608.77
2018-10-02T03:59:56.663Z,97605.27
2018-10-02T04:02:26.847Z,97607.63
2018-10-02T04:04:56.838Z,97621.10
2018-10-02T04:07:26.981Z,97618.58
2018-10-02T04:09:56.917Z,97612.91
2018-10-02T04:12:27.161Z,97609.27
2018-10-02T04:14:56.844Z,97613.33
2018-10-02T04:17:26.872Z,97616.52
2018-10-02T04:19:57.130Z,97614.47
2018-10-02T04:22:27.356Z,97612.89
2018-10-02T04:24:57.869Z,97607.14
2018-10-02T04:27:28.340Z,97612.34
2018-10-02T04:29:58.315Z,97612.73
2018-10-02T04:32:28.757Z,97623.72
2018-10-02T04:34:58.434Z,97621.38
2018-10-02T04:37:28.510Z,97618.39
2018-10-02T04:39:58.410Z,97613.74
2018-10-02T04:42:28.397Z,97617.32
2018-10-02T04:44:58.305Z,97622.59
2018-10-02T04:47:28.400Z,97629.17
2018-10-02T04:49:58.641Z,97626.65
2018-10-02T04:52:29.640Z,97633.62
2018-10-02T04:54:59.478Z,97635.82
2018-10-02T04:57:29.538Z,97638.57
2018-10-02T04:59:59.499Z,97638.65
2018-10-02T05:02:29.362Z,97638.28
2018-10-02T05:04:59.806Z,97634.43
2018-10-02T05:07:29.836Z,97634.19
2018-10-02T05:09:59.854Z,97643.90
2018-10-02T05:12:30.056Z,97645.59
2018-10-02T05:15:00.864Z,97643.00
2018-10-02T05:17:31.017Z,97645.95
2018-10-02T05:20:00.973Z,97649.93
2018-10-02T05:22:30.912Z,97649.09
2018-10-02T05:25:00.944Z,97652.84
2018-10-02T05:27:30.975Z,97656.75
2018-10-02T05:30:00.839Z,97661.19
2018-10-02T05:32:30.731Z,97659.02
2018-10-02T05:35:00.732Z,97663.94
2018-10-02T05:37:30.725Z,97669.96
2018-10-02T05:40:00.543Z,97673.24
2018-10-02T05:42:30.406Z,97677.07
2018-10-02T05:45:00.359Z,97671.04
2018-10-02T05:47:30.417Z,97677.94
2018-10-02T05:50:00.185Z,97692.23
2018-10-02T05:52:30.253Z,97690.92
2018-10-02T05:55:00.164Z,97694.75
2018-10-02T05:57:30.760Z,97702.01
2018-10-02T06:00:00.807Z,97699.84
2018-10-02T06:02:32.549Z,97703.56
2018-10-02T06:05:02.243Z,97709.08
2018-10-02T06:07:32.315Z,97705.58
2018-10-02T06:10:02.180Z,97708.17
2018-10-02T06:12:32.022Z,97719.41
2018-10-02T06:15:01.939Z,97716.80
2018-10-02T06:17:31.785Z,97724.13
2018-10-02T06:20:01.619Z,97738.75
2018-10-02T06:22:31.564Z,97742.03
2018-10-02T06:25:01.291Z,97750.67
2018-10-02T06:27:31.114Z,97756.09
2018-10-02T06:30:01.141Z,97762.44
2018-10-02T06:32:31.097Z,97764.97
2018-10-02T06:35:00.998Z,97772.95
2018-10-02T06:37:31.662Z,97774.93
2018-10-02T06:40:01.430Z,97774.24
2018-10-02T06:42:31.518Z,97780.92
2018-10-02T06:45:01.324Z,97779.00
2018-10-02T06:47:31.444Z,97785.13
2018-10-02T06:50:01.270Z,97787.48
2018-10-02T06:52:31.509Z,97790.62
2018-10-02T06:55:00.993Z,97793.31
2018-10-02T06:57:31.083Z,97799.13
2018-10-02T07:00:00.821Z,97796.91
2018-10-02T07:02:30.891Z,97807.53
2018-10-02T07:05:00.870Z,97812.13
2018-10-02T07:07:30.845Z,97817.25
2018-10-02T07:10:00.809Z,97812.36
2018-10-02T07:12:30.597Z,97815.50
2018-10-02T07:15:00.486Z,97817.80
2018-10-02T07:17:31.187Z,97820.68
2018-10-02T07:20:01.128Z,97823.60
2018-10-02T07:22:31.238Z,97824.83
2018-10-02T07:25:01.050Z,97829.62
2018-10-02T07:27:31.020Z,97827.65
2018-10-02T07:30:00.752Z,97825.72
2018-10-02T07:32:30.926Z,97828.25
2018-10-02T07:35:00.665Z,97831.84
2018-10-02T07:37:30.432Z,97843.22
2018-10-02T07:40:00.369Z,97839.83
2018-10-02T07:42:30.409Z,97839.36
2018-10-02T07:45:00.395Z,97839.31
2018-10-02T07:47:30.548Z,97846.81
2018-10-02T07:50:00.534Z,97846.66
2018-10-02T07:52:31.789Z,97855.66
2018-10-02T07:55:01.618Z,97856.21
2018-10-02T07:57:31.771Z,97852.06
2018-10-02T08:00:01.841Z,97853.27
2018-10-02T08:02:31.885Z,97858.08
2018-10-02T08:05:02.001Z,97851.06
2018-10-02T08:07:31.905Z,97845.31
2018-10-02T08:10:01.929Z,97851.25
2018-10-02T08:12:31.959Z,97850.47
2018-10-02T08:15:01.763Z,97847.99
2018-10-02T08:17:31.748Z,97850.58
2018-10-02T08:20:01.811Z,97846.41
2018-10-02T08:22:31.844Z,97846.16
2018-10-02T08:25:01.630Z,97850.47
2018-10-02T08:27:32.136Z,97853.98
2018-10-02T08:30:02.267Z,97856.80
2018-10-02T08:32:32.195Z,97853.52
2018-10-02T08:35:02.321Z,97853.95
2018-10-02T08:37:32.370Z,97851.96
2018-10-02T08:40:02.108Z,97856.98
2018-10-02T08:42:32.189Z,97850.63
2018-10-02T08:45:02.001Z,97858.55
2018-10-02T08:47:31.864Z,97853.14
2018-10-02T08:50:01.792Z,97844.49
2018-10-02T08:52:31.612Z,97845.28
2018-10-02T08:55:01.397Z,97847.95
2018-10-02T08:57:31.303Z,97853.91
2018-10-02T09:00:01.168Z,97857.98
2018-10-02T09:02:30.993Z,97854.38
2018-10-02T09:05:00.818Z,97853.81
2018-10-02T09:07:30.726Z,97859.35
2018-10-02T09:10:00.520Z,97867.09
2018-10-02T09:12:30.403Z,97861.72
2018-10-02T09:15:00.346Z,97865.55
2018-10-02T09:17:30.128Z,97858.72
2018-10-02T09:20:00.162Z,97859.41
2018-10-02T09:22:30.015Z,97855.87
2018-10-02T09:24:59.919Z,97864.56
2018-10-02T09:27:29.645Z,97872.55
2018-10-02T09:30:04.508Z,97867.20
2018-10-02T09:32:39.377Z,97873.54
2018-10-02T09:35:14.304Z,97866.02
2018-10-02T09:37:49.159Z,97863.84
2018-10-02T09:40:23.905Z,97861.24
2018-10-02T09:42:59.507Z,97864.45
2018-10-02T09:45:29.417Z,97855.26
2018-10-02T09:48:03.350Z,97861.05
2018-10-02T09:50:33.180Z,97854.99
2018-10-02T09:53:03.211Z,97853.42
2018-10-02T09:55:33.661Z,97860.07
2018-10-02T09:58:04.545Z,97861.12
2018-10-02T10:00:39.269Z,97866.97
2018-10-02T10:03:09.256Z,97869.54
2018-10-02T10:05:39.158Z,97858.31
2018-10-02T10:08:09.491Z,97855.67
2018-10-02T10:10:39.263Z,97846.99
2018-10-02T10:13:09.289Z,97851.72
2018-10-02T10:15:39.110Z,97859.69
2018-10-02T10:18:09.163Z,97865.02
2018-10-02T10:20:38.903Z,97874.63
2018-10-02T10:23:09.250Z,97873.63
2018-10-02T10:25:39.298Z,97865.21
2018-10-02T10:28:09.145Z,97865.89
2018-10-02T10:30:39.005Z,97859.86
2018-10-02T10:33:09.552Z,97862.59
2018-10-02T10:35:39.444Z,97863.78
2018-10-02T10:38:09.531Z,97872.16
2018-10-02T10:40:39.395Z,97873.09
2018-10-02T10:43:09.160Z,97872.74
2018-10-02T10:45:39.069Z,97869.02
2018-10-02T10:48:09.022Z,97867.17
2018-10-02T10:50:38.684Z,97864.14
2018-10-02T10:53:08.678Z,97868.50
2018-10-02T10:55:39.708Z,97868.61
2018-10-02T10:58:09.485Z,97872.51
2018-10-02T11:00:39.214Z,97869.56
2018-10-02T11:03:09.144Z,97863.47
2018-10-02T11:05:39.369Z,97860.57
2018-10-02T11:08:09.236Z,97852.97
2018-10-02T11:10:39.216Z,97847.91
2018-10-02T11:13:09.090Z,97846.05
2018-10-02T11:15:38.984Z,97847.61
2018-10-02T11:18:08.882Z,97843.77
2018-10-02T11:20:39.550Z,97832.83
2018-10-02T11:23:09.302Z,97830.43
2018-10-02T11:25:39.173Z,97822.95
2018-10-02T11:28:08.890Z,97824.20
2018-10-02T11:30:38.880Z,97823.63
2018-10-02T11:33:08.661Z,97818.27
2018-10-02T11:35:38.945Z,97823.03
2018-10-02T11:38:08.883Z,97814.41
2018-10-02T11:40:38.659Z,97817.48
2018-10-02T11:43:09.951Z,97809.11
2018-10-02T11:45:39.789Z,97803.61
2018-10-02T11:48:10.443Z,97802.34
2018-10-02T11:50:40.210Z,97799.36
2018-10-02T11:53:11.383Z,97798.95
2018-10-02T11:55:41.341Z,97781.73
2018-10-02T11:58:11.070Z,97787.12
2018-10-02T12:00:41.290Z,97782.92
2018-10-02T12:03:11.190Z,97787.11
2018-10-02T12:05:41.138Z,97781.88
2018-10-02T12:08:10.951Z,97778.54
2018-10-02T12:10:40.881Z,97769.73
2018-10-02T12:13:10.727Z,97771.53
2018-10-02T12:15:40.481Z,97769.01
2018-10-02T12:18:10.405Z,97765.47
2018-10-02T12:20:40.381Z,97759.08
2018-10-02T12:23:10.784Z,97761.16
2018-10-02T12:25:40.680Z,97766.73
2018-10-02T12:28:10.508Z,97770.72
2018-10-02T12:30:40.577Z,97773.24
2018-10-02T12:33:10.260Z,97785.71
2018-10-02T12:35:40.232Z,97776.50
2018-10-02T12:38:10.099Z,97777.56
2018-10-02T12:40:40.175Z,97774.69
2018-10-02T12:43:10.033Z,97776.81
2018-10-02T12:45:40.161Z,97773.61
2018-10-02T12:48:09.997Z,97773.61
2018-10-02T12:50:40.169Z,97774.05
2018-10-02T12:53:09.977Z,97768.70
2018-10-02T12:55:39.912Z,97768.80
2018-10-02T12:58:09.751Z,97763.53
2018-10-02T13:00:39.847Z,97774.53
2018-10-02T13:03:10.888Z,97775.22
2018-10-02T13:05:40.713Z,97765.77
2018-10-02T13:08:10.425Z,97768.63
2018-10-02T13:10:40.249Z,97772.11
2018-10-02T13:13:09.946Z,97778.53
2018-10-02T13:15:41.046Z,97778.19
2018-10-02T13:18:11.050Z,97775.11
2018-10-02T13:20:41.547Z,97779.91
2018-10-02T13:23:11.446Z,97781.56
2018-10-02T13:25:41.315Z,97779.42
2018-10-02T13:28:10.820Z,97783.67
2018-10-02T13:30:40.550Z,97788.77
2018-10-02T13:33:10.360Z,97784.67
2018-10-02T13:35:40.713Z,97778.55
2018-10-02T13:38:10.794Z,97778.55
2018-10-02T13:40:40.972Z,97777.45
2018-10-02T13:43:10.645Z,97767.09
2018-10-02T13:45:40.383Z,97773.59
2018-10-02T13:48:10.104Z,97771.84
2018-10-02T13:50:39.925Z,97766.66
2018-10-02T13:53:09.814Z,97769.77
2018-10-02T13:55:40.359Z,97772.55
2018-10-02T13:58:10.504Z,97774.92
2018-10-02T14:00:40.486Z,97776.55
2018-10-02T14:03:10.344Z,97778.92
2018-10-02T14:05:40.327Z,97777.61
2018-10-02T14:08:10.299Z,97782.39
2018-10-02T14:10:40.202Z,97786.85
2018-10-02T14:13:10.460Z,97794.44
2018-10-02T14:15:40.406Z,97796.55
2018-10-02T14:18:10.219Z,97794.66
2018-10-02T14:20:40.180Z,97791.66
2018-10-02T14:23:09.981Z,97789.00
2018-10-02T14:25:39.779Z,97791.09
2018-10-02T14:28:09.705Z,97798.44
2018-10-02T14:30:39.859Z,97793.40
2018-10-02T14:33:09.699Z,97796.02
2018-10-02T14:35:39.699Z,97786.20
2018-10-02T14:38:09.552Z,97790.61
2018-10-02T14:40:39.539Z,97790.09
2018-10-02T14:43:09.482Z,97790.41
2018-10-02T14:45:39.939Z,97788.83
2018-10-02T14:48:09.781Z,97782.61
2018-10-02T14:50:39.640Z,97789.52
2018-10-02T14:53:09.380Z,97785.23
2018-10-02T14:55:39.219Z,97786.97
2018-10-02T14:58:09.118Z,97785.47
2018-10-02T15:00:38.978Z,97785.19
2018-10-02T15:03:08.639Z,97784.89
2018-10-02T15:05:38.530Z,97783.28
2018-10-02T15:08:08.380Z,97788.00
2018-10-02T15:10:38.532Z,97793.99
2018-10-02T15:13:08.293Z,97794.89
2018-10-02T15:15:38.274Z,97793.67
2018-10-02T15:18:08.647Z,97804.13
2018-10-02T15:20:39.387Z,97807.55
2018-10-02T15:23:09.296Z,97798.91
2018-10-02T15:25:39.142Z,97801.31
2018-10-02T15:28:09.039Z,97800.45
2018-10-02T15:30:40.452Z,97798.61
2018-10-02T15:33:10.569Z,97803.48
2018-10-02T15:35:41.085Z,97802.02
2018-10-02T15:38:11.228Z,97796.05
2018-10-02T15:40:41.339Z,97799.30
2018-10-02T15:43:13.310Z,97790.50
2018-10-02T15:45:44.898Z,97806.07
2018-10-02T15:48:14.724Z,97800.25
2018-10-02T15:50:44.942Z,97805.72
2018-10-02T15:53:15.062Z,97804.61
2018-10-02T15:55:44.782Z,97808.63
2018-10-02T15:58:14.460Z,97811.08
2018-10-02T16:00:44.404Z,97815.98
2018-10-02T16:03:14.146Z,97811.63
2018-10-02T16:05:43.985Z,97814.70
2018-10-02T16:08:13.773Z,97819.45
2018-10-02T16:10:43.722Z,97820.34
2018-10-02T16:13:13.520Z,97819.44
2018-10-02T16:15:43.806Z,97819.47
2018-10-02T16:18:13.756Z,97825.19
2018-10-02T16:20:43.522Z,97820.13
2018-10-02T16:23:13.397Z,97821.98
2018-10-02T16:25:43.309Z,97822.41
2018-10-02T16:28:13.004Z,97832.05
2018-10-02T16:30:42.912Z,97838.92
2018-10-02T16:33:12.582Z,97834.97
2018-10-02T16:35:42.914Z,97838.58
2018-10-02T16:38:12.692Z,97845.94
2018-10-02T16:40:43.043Z,97845.41
2018-10-02T16:43:12.802Z,97846.19
2018-10-02T16:45:42.581Z,97854.94
2018-10-02T16:48:12.483Z,97858.13
2018-10-02T16:50:43.222Z,97854.98
2018-10-02T16:53:12.845Z,97860.20
2018-10-02T16:55:42.814Z,97869.45
2018-10-02T16:58:12.545Z,97873.69
2018-10-02T17:00:42.307Z,97867.94
2018-10-02T17:03:12.259Z,97863.09
2018-10-02T17:05:42.449Z,97873.28
2018-10-02T17:08:12.427Z,97878.73
2018-10-02T17:10:42.427Z,97874.69
2018-10-02T17:13:12.337Z,97874.61
2018-10-02T17:15:42.706Z,97875.66
2018-10-02T17:18:12.652Z,97886.39
2018-10-02T17:20:42.831Z,97885.77
2018-10-02T17:23:12.528Z,97894.44
2018-10-02T17:25:42.410Z,97890.90
2018-10-02T17:28:12.101Z,97900.41
2018-10-02T17:30:42.102Z,97904.31
2018-10-02T17:33:11.896Z,97904.78
2018-10-02T17:35:41.776Z,97901.70
2018-10-02T17:38:12.781Z,97907.75
2018-10-02T17:40:43.788Z,97907.38
2018-10-02T17:43:13.396Z,97913.50
2018-10-02T17:45:46.764Z,97914.19
2018-10-02T17:48:20.059Z,97925.66
2018-10-02T17:50:50.401Z,97931.62
2018-10-02T17:53:20.190Z,97933.22
2018-10-02T17:55:50.146Z,97935.41
2018-10-02T17:58:19.969Z,97945.05
2018-10-02T18:00:50.675Z,97950.75
2018-10-02T18:03:20.634Z,97950.04
2018-10-02T18:05:50.746Z,97939.36
2018-10-02T18:08:21.201Z,97945.17
2018-10-02T18:10:51.141Z,97947.91
2018-10-02T18:13:21.076Z,97950.01
2018-10-02T18:15:51.282Z,97956.77
2018-10-02T18:18:21.452Z,97953.47
2018-10-02T18:20:51.820Z,97953.42
2018-10-02T18:23:22.119Z,97944.98
2018-10-02T18:25:52.125Z,97950.25
2018-10-02T18:28:21.854Z,97947.27
2018-10-02T18:30:52.212Z,97955.70
2018-10-02T18:33:22.099Z,97949.00
2018-10-02T18:35:52.484Z,97948.16
2018-10-02T18:38:22.117Z,97949.70
2018-10-02T18:40:52.873Z,97952.34
2018-10-02T18:43:25.940Z,97955.63
2018-10-02T18:45:59.775Z,97958.98
2018-10-02T18:48:29.389Z,97955.84
2018-10-02T18:50:59.757Z,97958.33
2018-10-02T18:53:30.190Z,97954.90
2018-10-02T18:56:00.339Z,97957.44
2018-10-02T18:58:30.222Z,97958.19
2018-10-02T19:01:00.323Z,97951.52
2018-10-02T19:03:30.186Z,97953.28
2018-10-02T19:06:00.136Z,97948.49
2018-10-02T19:08:34.893Z,97952.69
2018-10-02T19:11:09.777Z,97959.50
2018-10-02T19:13:39.808Z,97957.19
2018-10-02T19:16:14.735Z,97961.88
2018-10-02T19:18:44.699Z,97965.52
2018-10-02T19:21:14.562Z,97964.91
2018-10-02T19:23:44.521Z,97961.53
2018-10-02T19:26:20.740Z,97959.31
2018-10-02T19:28:51.095Z,97958.02
2018-10-02T19:31:26.714Z,97967.59
2018-10-02T19:33:57.346Z,97962.58
2018-10-02T19:36:27.471Z,97965.33
2018-10-02T19:39:00.348Z,97958.07
2018-10-02T19:41:31.275Z,97958.53
2018-10-02T19:44:01.137Z,97955.69
2018-10-02T19:46:36.184Z,97962.13
2018-10-02T19:49:06.105Z,97963.77
2018-10-02T19:51:41.030Z,97962.67
2018-10-02T19:54:11.088Z,97967.22
2018-10-02T19:56:40.915Z,97967.34
2018-10-02T19:59:10.721Z,97963.15
2018-10-02T20:01:40.812Z,97970.17
2018-10-02T20:04:10.564Z,97976.13
2018-10-02T20:06:40.941Z,97973.27
2018-10-02T20:09:11.626Z,97980.20
2018-10-02T20:11:41.437Z,97986.94
2018-10-02T20:14:12.176Z,97993.58
2018-10-02T20:16:42.133Z,97989.25
2018-10-02T20:19:11.938Z,97984.86
2018-10-02T20:21:41.962Z,97989.95
2018-10-02T20:24:11.709Z,97990.95
2018-10-02T20:26:42.318Z,97990.16
2018-10-02T20:29:12.185Z,97991.79
2018-10-02T20:31:46.182Z,97991.79
2018-10-02T20:34:15.838Z,97998.98
2018-10-02T20:36:46.078Z,97992.94
2018-10-02T20:39:15.738Z,97995.48
2018-10-02T20:41:45.764Z,97991.64
2018-10-02T20:44:16.044Z,97992.25
2018-10-02T20:46:46.272Z,97996.68
2018-10-02T20:49:16.289Z,97984.90
2018-10-02T20:51:46.172Z,97985.23
2018-10-02T20:54:15.951Z,97989.57
2018-10-02T20:56:46.245Z,97988.83
2018-10-02T20:59:16.032Z,97993.64
2018-10-02T21:01:45.817Z,97989.89
2018-10-02T21:04:15.909Z,97988.74
2018-10-02T21:06:46.230Z,97989.52
2018-10-02T21:09:15.916Z,97994.33
2018-10-02T21:11:45.633Z,97991.55
2018-10-02T21:14:15.362Z,97994.95
2018-10-02T21:16:45.334Z,97987.74
2018-10-02T21:19:15.053Z,98001.09
2018-10-02T21:21:44.874Z,98008.55
2018-10-02T21:24:14.909Z,98005.42
2018-10-02T21:26:45.408Z,97992.75
2018-10-02T21:29:15.364Z,97985.17
2018-10-02T21:31:45.264Z,97984.62
2018-10-02T21:34:15.135Z,97983.38
2018-10-02T21:36:45.113Z,97977.94
2018-10-02T21:39:14.945Z,97984.26
2018-10-02T21:41:44.905Z,97989.14
2018-10-02T21:44:14.924Z,97993.02
2018-10-02T21:46:44.953Z,97991.81
2018-10-02T21:49:14.886Z,97989.23
2018-10-02T21:51:44.880Z,97984.98
2018-10-02T21:54:14.874Z,97978.57
2018-10-02T21:56:44.723Z,97979.98
2018-10-02T21:59:14.594Z,97974.00
2018-10-02T22:01:44.612Z,97970.20
2018-10-02T22:04:14.650Z,97964.88
2018-10-02T22:06:44.414Z,97965.89
2018-10-02T22:09:14.262Z,97964.97
2018-10-02T22:11:44.342Z,97971.80
2018-10-02T22:14:14.275Z,97958.60
2018-10-02T22:16:44.221Z,97960.81
2018-10-02T22:19:14.166Z,97971.52
2018-10-02T22:21:44.177Z,97965.70
2018-10-02T22:24:14.033Z,97967.98
2018-10-02T22:26:43.742Z,97966.03
2018-10-02T22:29:13.864Z,97961.00
2018-10-02T22:31:43.832Z,97968.88
2018-10-02T22:34:13.811Z,97966.42
2018-10-02T22:36:43.841Z,97962.95
2018-10-02T22:39:13.747Z,97966.83
2018-10-02T22:41:43.588Z,97965.09
2018-10-02T22:44:13.410Z,97968.42
2018-10-02T22:46:43.279Z,97966.54
2018-10-02T22:49:13.118Z,97968.29
2018-10-02T22:51:42.999Z,97973.45
2018-10-02T22:54:12.967Z,97982.54
2018-10-02T22:56:42.757Z,97984.91
2018-10-02T22:59:12.802Z,97987.53
2018-10-02T23:01:44.188Z,97985.48
2018-10-02T23:04:13.966Z,97982.95
2018-10-02T23:06:44.764Z,97981.66
2018-10-02T23:09:14.568Z,97985.91
2018-10-02T23:11:46.179Z,97986.33
2018-10-02T23:14:16.073Z,97979.54
2018-10-02T23:16:47.639Z,97978.74
2018-10-02T23:19:17.489Z,97972.46
2018-10-02T23:21:49.019Z,97983.95
2018-10-02T23:24:19.088Z,97981.66
2018-10-02T23:26:50.486Z,97969.75
2018-10-02T23:29:20.580Z,97983.28
2018-10-02T23:31:52.283Z,97980.09
2018-10-02T23:34:22.290Z,97977.77
2018-10-02T23:36:53.171Z,97978.97
2018-10-02T23:39:22.936Z,97974.67
2018-10-02T23:41:53.531Z,97982.84
2018-10-02T23:44:23.434Z,97976.42
2018-10-02T23:46:54.341Z,97976.02
2018-10-02T23:49:24.979Z,97970.84
2018-10-02T23:51:55.682Z,97962.71
2018-10-02T23:54:26.490Z,97959.17
2018-10-02T23:56:56.517Z,97952.98
2018-10-02T23:59:26.461Z,97957.94
